Historique des stations

Station météo de Château-Renault

Altitude de la station : 120 m







Données météorologiques pour le 20/01/2022
Date
Heure
Températures Humidité Point de rosée Vitesse
du vent
Direction Rafales Windchill Pression Pluviométrie
Cumul
Date
Heure
Températures Humidité Point de rosée Vitesse
du vent
Direction Rafales Windchill Pression Pluviométrie
Cumul
20/01/2022 14:028.6 °C77 %5.0 °C3 km/hS11 km/h8.3 1034 hPa0.3 mm
20/01/2022 13:488.4 °C77 %4.4 °C6 km/hSE10 km/h7.2 1034 hPa0.3 mm
20/01/2022 13:328.0 °C78 %4.4 °C3 km/hS11 km/h7.2 1034 hPa0.3 mm
20/01/2022 13:187.9 °C79 %4.4 °C6 km/hSO10 km/h6.7 1035 hPa0.3 mm
20/01/2022 13:037.9 °C78 %4.4 °C3 km/hS10 km/h7.2 1035 hPa0.3 mm
20/01/2022 12:487.4 °C80 %4.4 °C8 km/hSSO11 km/h5.6 1035 hPa0.3 mm
20/01/2022 12:337.2 °C79 %3.9 °C6 km/hSO11 km/h6.1 1035 hPa0.3 mm
20/01/2022 12:187.1 °C82 %4.4 °C3 km/hSO11 km/h6.7 1035 hPa0.3 mm
20/01/2022 12:036.7 °C83 %3.9 °C6 km/hSO11 km/h5.6 1035 hPa0.3 mm
20/01/2022 11:486.3 °C82 %3.3 °C10 km/hSSO11 km/h3.9 1035 hPa0.3 mm
20/01/2022 11:336.1 °C84 %3.3 °C5 km/hSSO8 km/h5.6 1035 hPa0.3 mm
20/01/2022 11:185.7 °C86 %3.3 °C5 km/hSSO6 km/h5.0 1035 hPa0.3 mm
20/01/2022 11:035.2 °C88 %3.3 °C2 km/hSO8 km/h5.0 1034 hPa0.3 mm
20/01/2022 10:484.6 °C92 %3.3 °C2 km/hSSO5 km/h3.9 1035 hPa0.3 mm
20/01/2022 10:333.9 °C94 %3.3 °C2 km/hSSO6 km/h3.3 1035 hPa0.3 mm
20/01/2022 10:183.4 °C95 %2.8 °C2 km/hSSO5 km/h2.8 1035 hPa0.3 mm
20/01/2022 10:032.9 °C96 %2.2 °C2 km/hSSO6 km/h2.2 1035 hPa0.3 mm
20/01/2022 09:482.4 °C96 %1.7 °C-SSE3 km/h2.2 1034 hPa0.3 mm
20/01/2022 09:332.1 °C96 %1.7 °C2 km/hSSE5 km/h1.7 1034 hPa0.3 mm
20/01/2022 09:182.2 °C96 %1.7 °C2 km/hSSE5 km/h1.7 1034 hPa0.3 mm
20/01/2022 09:032.2 °C96 %1.7 °C-SSE3 km/h2.2 1034 hPa0.3 mm
20/01/2022 08:482.2 °C96 %1.7 °C2 km/hSSE5 km/h1.7 1034 hPa0.3 mm
20/01/2022 08:332.3 °C96 %1.7 °C-SSE3 km/h2.2 1033 hPa0.3 mm
20/01/2022 08:182.1 °C96 %1.7 °C-SSE3 km/h2.2 1033 hPa0.3 mm
20/01/2022 08:022.3 °C96 %1.7 °C-SSE2 km/h2.2 1033 hPa0.3 mm
20/01/2022 07:472.4 °C96 %1.7 °C-SSE3 km/h2.2 1033 hPa0.3 mm
20/01/2022 07:332.6 °C96 %2.2 °C-SSE3 km/h2.8 1032 hPa0.3 mm
20/01/2022 07:17-96 %-----1032 hPa0.3 mm
20/01/2022 07:023.2 °C96 %2.8 °C-SSE2 km/h3.3 1032 hPa0.3 mm
20/01/2022 06:473.2 °C96 %2.8 °C-SSE2 km/h3.3 1032 hPa0.3 mm
20/01/2022 06:323.3 °C95 %2.8 °C2 km/hSSE2 km/h2.8 1032 hPa0.3 mm
20/01/2022 06:173.8 °C95 %3.3 °C2 km/hSSE3 km/h3.3 1032 hPa0.3 mm
20/01/2022 06:024.3 °C95 %3.9 °C-SSE3 km/h4.4 1032 hPa0.3 mm
20/01/2022 05:474.8 °C96 %4.4 °C-SSE3 km/h5.0 1032 hPa0.3 mm
20/01/2022 05:334.9 °C96 %4.4 °C2 km/hSSE2 km/h5.0 1032 hPa0.3 mm
20/01/2022 05:175.2 °C96 %4.4 °C2 km/hSSE5 km/h5.0 1032 hPa0.3 mm
20/01/2022 05:035.2 °C96 %4.4 °C-SSE3 km/h5.0 1032 hPa0.3 mm
20/01/2022 04:475.3 °C96 %5.0 °C-SSE5 km/h5.6 1032 hPa0.3 mm
20/01/2022 04:325.3 °C96 %5.0 °C-SE8 km/h5.6 1032 hPa0.3 mm
20/01/2022 04:175.3 °C96 %5.0 °C2 km/hESE3 km/h5.6 1032 hPa0.3 mm
20/01/2022 04:025.3 °C96 %5.0 °C2 km/hESE3 km/h5.6 1032 hPa0.3 mm
20/01/2022 03:475.3 °C96 %5.0 °C2 km/hESE5 km/h5.6 1032 hPa0.3 mm
20/01/2022 03:335.3 °C96 %5.0 °C3 km/hSE10 km/h5.0 1032 hPa0.3 mm
20/01/2022 03:175.1 °C96 %4.4 °C2 km/hSE8 km/h5.0 1032 hPa0.3 mm
20/01/2022 03:025.1 °C96 %4.4 °C3 km/hESE5 km/h4.4 1031 hPa0.3 mm
20/01/2022 02:475.1 °C96 %4.4 °C2 km/hESE5 km/h5.0 1031 hPa0.3 mm
20/01/2022 02:335.1 °C96 %4.4 °C-ESE3 km/h5.0 1031 hPa0.3 mm
20/01/2022 02:175.1 °C96 %4.4 °C3 km/hESE5 km/h4.4 1031 hPa0.3 mm
20/01/2022 02:025.1 °C96 %4.4 °C3 km/hESE5 km/h4.4 1031 hPa0.3 mm
20/01/2022 01:475.1 °C96 %4.4 °C3 km/hSE8 km/h4.4 1032 hPa0.3 mm
20/01/2022 01:325.1 °C95 %4.4 °C5 km/hESE8 km/h4.4 1031 hPa-
20/01/2022 01:175.1 °C95 %4.4 °C5 km/hESE13 km/h4.4 1031 hPa-
20/01/2022 01:025.0 °C95 %4.4 °C3 km/hESE6 km/h4.4 1031 hPa-
20/01/2022 00:475.0 °C95 %4.4 °C2 km/hESE6 km/h5.0 1031 hPa-
20/01/2022 00:324.9 °C95 %4.4 °C3 km/hESE5 km/h4.4 1032 hPa-
20/01/2022 00:174.9 °C95 %4.4 °C3 km/hE6 km/h4.4 1031 hPa-
20/01/2022 00:024.9 °C95 %4.4 °C2 km/hE5 km/h5.0 1031 hPa-


Minima :

Température : 2.1 °C
Humidité : 77 %
Point de rosée : 1.7 °C
Vent moyen : 2 km/h
Windchill : 1.7
Pression atm. : 1031 hPa
Maxima :

Température : 8.6 °C
Humidité : 96 %
Point de rosée : 5.0 °C
Vent moyen : 10 km/h
Windchill : 8.3
Pression atm. : 1035 hPa
Rafales max : 13 km/h
Cumul de pluie sur 24H : 0.3 mm

Chateau-RENAULT est une commune du département Indre-et-Loire (37).
La station météorologique du réseau de l'association la plus proche de Château-Renault est celle de Véretz



Icône Facebook Association Météo Centre Icône Twitter Association Météo Centre Icône Chaîne Youtube Association Météo Centre Icône contact Association Météo Centre Icône Insta Association Météo Centre